createdAt,value
2022-12-18T00:01:52.036Z,52.47
2022-12-18T00:02:56.478Z,57.33
2022-12-18T04:07:08.145Z,58.97
2022-12-18T04:08:14.369Z,59.88
2022-12-18T04:09:19.377Z,55.67
2022-12-18T04:10:22.383Z,56.33
2022-12-18T04:11:25.824Z,53.97
2022-12-18T04:12:30.927Z,54.35
2022-12-18T04:13:37.327Z,57.62
2022-12-18T04:14:41.970Z,54.37
2022-12-18T04:15:44.876Z,59.25
2022-12-18T04:16:49.827Z,56.67
2022-12-18T04:17:52.892Z,54.88
2022-12-18T04:18:56.494Z,54.72
2022-12-18T04:19:59.853Z,56.25
2022-12-18T04:21:03.653Z,62.72
2022-12-18T04:22:06.666Z,53.10
2022-12-18T04:23:10.332Z,54.72
2022-12-18T04:24:13.587Z,49.25
2022-12-18T04:25:17.483Z,56.30
2022-12-18T04:26:23.156Z,58.33
2022-12-18T04:27:26.515Z,58.03
2022-12-18T04:28:29.748Z,56.40
2022-12-18T04:29:33.516Z,57.22
2022-12-18T04:30:37.527Z,44.70
2022-12-18T04:31:40.964Z,56.97
2022-12-18T04:32:47.738Z,54.25
2022-12-18T04:33:53.779Z,56.75
2022-12-18T04:34:57.023Z,58.83
2022-12-18T04:36:00.163Z,58.47
2022-12-18T04:37:03.872Z,52.00
2022-12-18T04:38:09.420Z,53.60
2022-12-18T04:39:13.480Z,51.65
2022-12-18T04:40:21.335Z,57.20
2022-12-18T04:41:24.546Z,55.58
2022-12-18T04:42:27.999Z,63.70
2022-12-18T04:43:31.275Z,64.93
2022-12-18T04:44:33.950Z,60.28
2022-12-18T04:45:36.926Z,61.37
2022-12-18T04:46:40.282Z,58.10
2022-12-18T04:47:43.097Z,63.47
2022-12-18T04:48:47.975Z,58.40
2022-12-18T04:49:51.234Z,59.92
2022-12-18T04:50:54.479Z,54.20
2022-12-18T04:51:57.356Z,59.42
2022-12-18T04:53:00.135Z,67.68
2022-12-18T04:54:03.279Z,74.78
2022-12-18T04:55:06.407Z,65.18
2022-12-18T04:56:12.065Z,60.65
2022-12-18T04:57:15.212Z,59.13
2022-12-18T04:58:18.086Z,62.55
2022-12-18T04:59:21.033Z,63.50
2022-12-18T05:00:24.870Z,70.15
2022-12-18T05:01:34.094Z,71.03
2022-12-18T05:02:37.579Z,73.65
2022-12-18T05:03:41.685Z,68.00
2022-12-18T05:04:45.086Z,73.72
2022-12-18T05:05:51.787Z,72.43
2022-12-18T05:06:54.931Z,71.72
2022-12-18T05:07:57.898Z,99.67
2022-12-18T05:09:01.345Z,112.85
2022-12-18T05:10:04.642Z,103.87
2022-12-18T05:11:12.586Z,105.12
2022-12-18T05:12:15.552Z,120.70
2022-12-18T05:13:18.231Z,76.93
2022-12-18T05:14:21.377Z,90.25
2022-12-18T05:15:24.117Z,121.60
2022-12-18T05:16:26.785Z,136.37
2022-12-18T05:17:29.990Z,138.95
2022-12-18T05:18:32.954Z,104.37
2022-12-18T05:19:35.973Z,102.40
2022-12-18T05:20:38.575Z,78.43
2022-12-18T05:21:41.583Z,71.35
2022-12-18T05:22:44.557Z,64.10
2022-12-18T05:23:47.271Z,59.63
2022-12-18T05:24:50.287Z,64.55
2022-12-18T05:26:01.416Z,70.32
2022-12-18T05:27:04.459Z,62.13
2022-12-18T05:28:08.162Z,65.85
2022-12-18T05:29:13.324Z,95.33
2022-12-18T05:30:17.570Z,90.50
2022-12-18T05:31:20.702Z,77.65
2022-12-18T05:32:23.598Z,63.47
2022-12-18T05:33:29.824Z,63.13
2022-12-18T05:34:32.462Z,60.03
2022-12-18T05:35:35.322Z,64.80
2022-12-18T05:36:37.948Z,63.72
2022-12-18T05:37:43.243Z,60.08
2022-12-18T05:38:47.123Z,78.35
2022-12-18T05:39:49.781Z,67.47
2022-12-18T05:40:53.742Z,74.68
2022-12-18T05:41:56.598Z,69.65
2022-12-18T05:42:59.301Z,91.90
2022-12-18T05:44:02.862Z,131.52
2022-12-18T05:45:06.629Z,65.55
2022-12-18T05:46:13.997Z,65.35
2022-12-18T05:47:16.801Z,58.90
2022-12-18T05:48:20.705Z,60.88
2022-12-18T05:49:23.850Z,65.12
2022-12-18T05:50:26.464Z,66.67
2022-12-18T05:51:29.351Z,69.28
2022-12-18T05:52:32.153Z,63.58
2022-12-18T05:53:36.031Z,63.47
2022-12-18T05:54:39.054Z,67.97
2022-12-18T05:55:43.798Z,65.40
2022-12-18T05:56:48.744Z,70.90
2022-12-18T05:57:51.702Z,65.60
2022-12-18T05:58:55.676Z,66.15
2022-12-18T05:59:58.836Z,66.62
2022-12-18T06:01:13.776Z,67.63
2022-12-18T06:02:16.915Z,66.35
2022-12-18T06:03:20.238Z,64.47
2022-12-18T06:04:24.203Z,64.55
2022-12-18T06:05:26.968Z,75.50
2022-12-18T06:06:30.156Z,68.03
2022-12-18T06:07:33.369Z,64.40
2022-12-18T06:08:36.135Z,77.45
2022-12-18T06:09:39.228Z,67.28
2022-12-18T06:10:42.560Z,67.53
2022-12-18T06:11:45.189Z,64.37
2022-12-18T06:12:48.189Z,75.40
2022-12-18T06:13:57.833Z,67.75
2022-12-18T06:15:01.637Z,75.53
2022-12-18T06:16:09.248Z,96.60
2022-12-18T06:17:12.977Z,124.72
2022-12-18T06:18:16.048Z,102.15
2022-12-18T06:19:18.812Z,106.87
2022-12-18T06:20:21.840Z,99.13
2022-12-18T06:21:24.964Z,91.35
2022-12-18T06:22:28.639Z,96.43
2022-12-18T06:23:32.180Z,127.82
2022-12-18T06:24:35.283Z,120.95
2022-12-18T06:25:39.703Z,86.97
2022-12-18T06:26:42.671Z,75.03
2022-12-18T06:27:45.312Z,62.60
2022-12-18T06:28:48.754Z,69.30
2022-12-18T06:29:51.744Z,62.80
2022-12-18T06:30:55.580Z,68.43
2022-12-18T06:31:58.223Z,62.47
2022-12-18T06:33:01.025Z,69.33
2022-12-18T06:34:05.879Z,68.53
2022-12-18T06:35:09.724Z,80.03
2022-12-18T06:36:14.342Z,126.12
2022-12-18T06:37:17.111Z,90.47
2022-12-18T06:38:19.840Z,105.22
2022-12-18T06:39:23.137Z,127.25
2022-12-18T06:40:25.937Z,124.95
2022-12-18T06:41:28.749Z,78.78
2022-12-18T06:42:31.357Z,71.00
2022-12-18T06:43:34.014Z,64.73
2022-12-18T06:44:37.411Z,75.68
2022-12-18T06:45:40.322Z,74.97
2022-12-18T06:46:43.040Z,74.07
2022-12-18T06:47:45.953Z,80.28
2022-12-18T06:48:50.481Z,76.50
2022-12-18T06:49:53.415Z,77.10
2022-12-18T06:50:56.496Z,77.78
2022-12-18T06:51:59.179Z,75.78
2022-12-18T06:53:01.981Z,63.03
2022-12-18T06:54:05.832Z,74.83
2022-12-18T06:55:10.391Z,75.97
2022-12-18T06:56:13.304Z,68.25
2022-12-18T06:57:16.264Z,80.62
2022-12-18T06:58:19.505Z,76.35
2022-12-18T06:59:22.249Z,93.10
2022-12-18T07:00:25.177Z,86.05
2022-12-18T07:01:28.569Z,79.12
2022-12-18T07:02:31.685Z,98.70
2022-12-18T07:03:34.515Z,85.85
2022-12-18T07:04:37.667Z,113.40
2022-12-18T07:05:42.018Z,199.65
2022-12-18T07:06:44.722Z,273.45
2022-12-18T07:07:47.731Z,142.37
2022-12-18T07:08:51.689Z,163.95
2022-12-18T07:09:54.528Z,142.73
2022-12-18T07:10:58.077Z,126.22
2022-12-18T07:12:00.735Z,112.57
2022-12-18T07:13:03.382Z,108.93
2022-12-18T07:14:05.971Z,98.90
2022-12-18T07:15:09.054Z,103.13
2022-12-18T07:16:19.691Z,130.02
2022-12-18T07:17:25.194Z,122.05
2022-12-18T07:18:28.261Z,107.07
2022-12-18T07:19:31.328Z,98.78
2022-12-18T07:20:35.409Z,125.10
2022-12-18T07:21:38.385Z,97.25
2022-12-18T07:22:41.547Z,85.40
2022-12-18T07:23:44.816Z,108.93
2022-12-18T07:24:47.568Z,86.03
2022-12-18T07:25:50.635Z,80.23
2022-12-18T07:26:54.322Z,87.65
2022-12-18T07:27:57.062Z,76.12
2022-12-18T07:29:00.225Z,70.45
2022-12-18T07:30:04.092Z,76.82
2022-12-18T07:31:09.528Z,76.87
2022-12-18T07:32:12.794Z,81.70
2022-12-18T07:33:16.713Z,101.45
2022-12-18T07:34:19.376Z,114.43
2022-12-18T07:35:24.916Z,109.57
2022-12-18T07:36:28.127Z,118.03
2022-12-18T07:37:31.100Z,157.95
2022-12-18T07:38:35.479Z,144.75
2022-12-18T07:39:38.309Z,157.80
2022-12-18T07:40:41.249Z,129.70
2022-12-18T07:41:47.662Z,122.70
2022-12-18T07:42:52.325Z,91.18
2022-12-18T07:43:55.454Z,85.20
2022-12-18T07:44:59.329Z,86.35
2022-12-18T07:46:03.112Z,78.55
2022-12-18T07:47:10.467Z,72.27
2022-12-18T07:48:15.299Z,70.53
2022-12-18T07:49:18.290Z,69.40
2022-12-18T07:50:21.250Z,71.12
2022-12-18T07:51:24.217Z,65.65
2022-12-18T07:52:27.058Z,68.80
2022-12-18T07:53:31.362Z,74.50
2022-12-18T07:54:34.030Z,75.80
2022-12-18T07:55:59.701Z,69.55
2022-12-18T07:57:00.818Z,76.28
2022-12-18T07:58:05.222Z,71.33
2022-12-18T07:59:08.213Z,69.72
2022-12-18T08:00:11.718Z,74.20
2022-12-18T08:01:14.899Z,76.60
2022-12-18T08:02:18.395Z,85.90
2022-12-18T08:03:22.062Z,80.03
2022-12-18T08:04:26.386Z,78.37
2022-12-18T08:05:29.325Z,89.32
2022-12-18T08:06:32.514Z,77.30
2022-12-18T08:07:42.069Z,66.80
2022-12-18T08:08:44.804Z,64.00
2022-12-18T08:09:47.510Z,68.47
2022-12-18T08:10:50.645Z,72.40
2022-12-18T08:11:53.368Z,63.45
2022-12-18T08:13:01.434Z,62.47
2022-12-18T08:14:07.228Z,67.12
2022-12-18T08:15:10.203Z,70.45
2022-12-18T08:16:13.338Z,72.70
2022-12-18T08:17:21.286Z,67.62
2022-12-18T08:18:25.261Z,68.80
2022-12-18T08:19:27.987Z,70.20
2022-12-18T08:20:30.684Z,65.18
2022-12-18T08:21:33.485Z,61.67
2022-12-18T08:22:40.047Z,53.35
2022-12-18T08:23:43.913Z,61.63
2022-12-18T08:24:46.753Z,79.30
2022-12-18T08:25:49.632Z,66.62
2022-12-18T08:27:20.868Z,74.57
2022-12-18T08:28:15.321Z,78.07
2022-12-18T08:29:21.710Z,85.43
2022-12-18T08:30:24.890Z,87.43
2022-12-18T08:31:29.397Z,147.07
2022-12-18T08:32:33.907Z,70.18
2022-12-18T08:33:38.849Z,71.30
2022-12-18T08:34:42.164Z,91.65
2022-12-18T08:35:46.178Z,70.45
2022-12-18T08:36:49.694Z,69.93
2022-12-18T08:37:52.369Z,70.00
2022-12-18T08:38:55.515Z,68.45
2022-12-18T08:39:58.492Z,64.62
2022-12-18T08:41:02.297Z,64.73
2022-12-18T08:42:23.527Z,72.80
2022-12-18T08:43:44.872Z,80.28
2022-12-18T08:44:47.602Z,78.20
2022-12-18T08:45:51.060Z,64.55
2022-12-18T08:46:53.783Z,76.43
2022-12-18T08:47:56.878Z,71.00
2022-12-18T08:48:59.974Z,70.97
2022-12-18T08:50:03.439Z,67.12
2022-12-18T08:51:06.659Z,59.88
2022-12-18T08:52:10.546Z,72.57
2022-12-18T08:53:13.157Z,64.40
2022-12-18T08:54:15.978Z,65.40
2022-12-18T08:55:19.191Z,68.32
2022-12-18T08:56:23.755Z,70.00
2022-12-18T08:57:26.579Z,71.95
2022-12-18T08:58:30.715Z,77.72
2022-12-18T08:59:33.718Z,84.40
2022-12-18T09:00:36.670Z,86.90
2022-12-18T09:01:39.938Z,111.82
2022-12-18T09:02:42.725Z,73.57
2022-12-18T09:03:45.807Z,83.03
2022-12-18T09:04:53.789Z,94.53
2022-12-18T09:06:00.567Z,58.72
2022-12-18T09:07:03.758Z,118.15
2022-12-18T09:08:06.880Z,100.78
2022-12-18T09:09:10.871Z,87.82
2022-12-18T09:10:13.543Z,87.93
2022-12-18T09:11:21.822Z,126.07
2022-12-18T09:12:25.129Z,106.43
2022-12-18T09:13:27.962Z,127.40
2022-12-18T09:14:30.726Z,121.10
2022-12-18T09:15:33.401Z,88.62
2022-12-18T09:16:36.862Z,121.60
2022-12-18T09:17:40.370Z,92.03
2022-12-18T09:18:43.488Z,98.87
2022-12-18T09:19:46.952Z,90.78
2022-12-18T09:20:51.295Z,97.00
2022-12-18T09:21:54.131Z,89.10
2022-12-18T09:22:57.580Z,80.18
2022-12-18T09:24:00.474Z,96.17
2022-12-18T09:25:03.366Z,83.87
2022-12-18T09:26:06.258Z,82.30
2022-12-18T09:27:09.221Z,82.65
2022-12-18T09:28:17.681Z,93.57
2022-12-18T09:29:20.341Z,68.60
2022-12-18T09:30:23.442Z,69.90
2022-12-18T09:31:26.575Z,81.12
2022-12-18T09:32:29.211Z,79.15
2022-12-18T09:33:32.999Z,67.68
2022-12-18T09:34:35.754Z,68.57
2022-12-18T09:35:38.869Z,71.60
2022-12-18T09:36:41.485Z,75.85
2022-12-18T09:37:44.505Z,70.20
2022-12-18T09:38:47.682Z,61.90
2022-12-18T09:39:50.349Z,62.80
2022-12-18T09:40:57.864Z,67.45
2022-12-18T09:42:00.656Z,82.68
2022-12-18T09:43:07.404Z,64.45
2022-12-18T09:44:17.376Z,73.90
2022-12-18T09:45:21.030Z,60.43
2022-12-18T09:46:30.266Z,71.82
2022-12-18T09:47:38.802Z,60.38
2022-12-18T09:48:47.335Z,66.60
2022-12-18T09:49:55.116Z,82.57
2022-12-18T09:51:03.639Z,59.90
2022-12-18T09:52:15.701Z,60.33
2022-12-18T09:53:27.952Z,69.60
2022-12-18T09:54:42.926Z,60.88
2022-12-18T09:55:48.111Z,69.22
2022-12-18T09:56:51.190Z,61.30
2022-12-18T09:58:01.316Z,57.15
2022-12-18T09:59:05.611Z,54.65
2022-12-18T10:00:11.727Z,57.03
2022-12-18T10:01:22.934Z,58.15
2022-12-18T10:02:27.942Z,54.65
2022-12-18T10:03:31.018Z,52.88
2022-12-18T10:04:33.895Z,58.30
2022-12-18T10:05:56.407Z,74.05
2022-12-18T10:07:10.699Z,65.28
2022-12-18T10:08:17.007Z,64.87
2022-12-18T10:09:32.019Z,69.40
2022-12-18T10:10:47.252Z,89.40
2022-12-18T10:11:54.345Z,72.87
2022-12-18T10:13:07.023Z,63.67
2022-12-18T10:14:36.840Z,80.47
2022-12-18T10:16:11.806Z,63.55
2022-12-18T10:17:20.377Z,61.30
2022-12-18T10:18:40.188Z,59.88
2022-12-18T10:19:57.729Z,59.10
2022-12-18T10:21:17.696Z,50.87
2022-12-18T10:22:25.653Z,60.15
2022-12-18T10:23:34.516Z,56.53
2022-12-18T10:24:55.550Z,55.70
2022-12-18T10:26:11.518Z,61.58
2022-12-18T10:27:22.658Z,98.10
2022-12-18T10:28:27.504Z,105.15
2022-12-18T10:29:30.344Z,66.60
2022-12-18T10:30:33.050Z,64.18
2022-12-18T10:31:36.828Z,47.08
2022-12-18T10:32:40.386Z,60.10
2022-12-18T10:33:43.340Z,51.97
2022-12-18T10:34:55.359Z,53.33
2022-12-18T10:36:02.751Z,45.97
2022-12-18T10:37:14.401Z,48.17
2022-12-18T10:38:17.298Z,53.63
2022-12-18T10:39:23.940Z,51.10
2022-12-18T10:40:26.610Z,57.83
2022-12-18T10:41:29.662Z,50.80
2022-12-18T10:42:33.097Z,53.40
2022-12-18T10:43:38.047Z,47.40
2022-12-18T10:44:40.744Z,62.60
2022-12-18T10:46:09.359Z,59.40
2022-12-18T10:47:20.448Z,59.35
2022-12-18T10:48:24.366Z,53.25
2022-12-18T10:49:30.804Z,56.37
2022-12-18T10:51:09.152Z,59.85
2022-12-18T10:52:25.831Z,52.45
2022-12-18T10:53:30.820Z,51.08
2022-12-18T10:54:36.103Z,60.83
2022-12-18T10:55:41.131Z,51.80
2022-12-18T10:56:44.977Z,105.43
2022-12-18T10:57:49.512Z,56.42
2022-12-18T10:59:07.755Z,62.53
2022-12-18T11:00:30.542Z,78.95
2022-12-18T11:01:48.585Z,97.80
2022-12-18T11:02:53.985Z,107.45
2022-12-18T11:04:09.145Z,95.40
2022-12-18T11:05:37.955Z,56.47
2022-12-18T11:06:58.279Z,49.67
2022-12-18T11:08:02.167Z,51.37
2022-12-18T11:09:13.252Z,55.95
2022-12-18T11:10:20.118Z,47.60
2022-12-18T11:11:24.444Z,53.40
2022-12-18T11:12:30.239Z,47.50
2022-12-18T11:13:33.131Z,56.30
2022-12-18T11:14:46.879Z,51.10
2022-12-18T11:15:51.157Z,48.63
2022-12-18T11:17:25.294Z,50.92
2022-12-18T11:18:21.679Z,50.12
2022-12-18T11:19:40.789Z,80.33
2022-12-18T11:20:58.173Z,73.50
2022-12-18T11:22:04.698Z,63.00
2022-12-18T11:23:14.759Z,57.62
2022-12-18T11:24:37.875Z,62.55
2022-12-18T11:25:51.801Z,65.93
2022-12-18T11:26:59.705Z,64.18
2022-12-18T11:28:27.063Z,57.97
2022-12-18T11:29:44.826Z,63.92
2022-12-18T11:30:49.290Z,55.42
2022-12-18T11:31:52.404Z,69.43
2022-12-18T11:32:59.742Z,54.58
2022-12-18T11:35:54.800Z,54.08
2022-12-18T11:37:00.208Z,105.07
2022-12-18T11:38:22.173Z,81.68
2022-12-18T11:39:40.494Z,151.60
2022-12-18T11:40:48.722Z,133.27
2022-12-18T11:42:10.429Z,80.25
2022-12-18T11:43:25.556Z,60.40
2022-12-18T11:44:36.980Z,68.23
2022-12-18T11:45:52.126Z,62.00
2022-12-18T11:47:03.560Z,138.93
2022-12-18T11:48:25.822Z,70.70
2022-12-18T11:49:40.257Z,61.65
2022-12-18T11:50:52.401Z,60.63
2022-12-18T11:52:04.041Z,61.35
2022-12-18T11:53:11.704Z,132.80
2022-12-18T11:54:17.257Z,172.98
2022-12-18T11:55:36.944Z,137.93
2022-12-18T11:56:53.793Z,63.23
2022-12-18T11:58:31.135Z,61.22
2022-12-18T11:59:40.902Z,58.83
2022-12-18T12:01:11.847Z,57.38
2022-12-18T12:02:42.804Z,64.22
2022-12-18T12:03:57.735Z,101.43
2022-12-18T12:05:19.323Z,64.78
2022-12-18T12:06:22.508Z,63.13
2022-12-18T12:07:59.940Z,59.75
2022-12-18T12:09:24.126Z,64.07
2022-12-18T12:11:00.534Z,73.97
2022-12-18T12:15:13.655Z,81.97
2022-12-18T12:16:26.085Z,67.70
2022-12-18T12:17:46.459Z,71.72
2022-12-18T12:19:25.081Z,81.15
2022-12-18T12:20:52.195Z,80.05
2022-12-18T12:22:19.693Z,66.97
2022-12-18T12:23:28.180Z,136.73
2022-12-18T12:24:56.823Z,86.28
2022-12-18T12:26:49.402Z,102.53
2022-12-18T12:28:04.371Z,66.10
2022-12-18T12:29:45.204Z,144.32
2022-12-18T12:32:18.005Z,87.15
2022-12-18T12:33:38.983Z,77.35
2022-12-18T12:35:17.894Z,83.47
2022-12-18T12:37:56.162Z,64.65
2022-12-18T12:39:06.653Z,57.42
2022-12-18T12:40:49.137Z,57.90
2022-12-18T12:41:59.802Z,53.30
2022-12-18T12:44:56.275Z,52.65
2022-12-18T12:46:15.358Z,53.70
2022-12-18T12:47:24.175Z,51.33
2022-12-18T12:48:45.231Z,64.97
2022-12-18T12:49:50.875Z,50.65
2022-12-18T12:50:56.498Z,54.92
2022-12-18T12:52:09.290Z,50.17
2022-12-18T12:53:34.241Z,56.27
2022-12-18T12:54:38.182Z,54.25
2022-12-18T12:55:43.759Z,59.17
2022-12-18T12:57:20.475Z,68.78
2022-12-18T12:58:49.150Z,72.47
2022-12-18T13:00:21.512Z,56.95
2022-12-18T13:02:15.427Z,72.57
2022-12-18T13:06:04.447Z,142.55
2022-12-18T13:07:20.697Z,65.72
2022-12-18T13:08:34.702Z,57.03
2022-12-18T13:10:35.925Z,75.97
2022-12-18T13:15:39.309Z,69.37
2022-12-18T13:16:43.108Z,108.35
2022-12-18T13:17:47.043Z,104.40
2022-12-18T13:19:03.911Z,73.70
2022-12-18T13:20:17.079Z,64.53
2022-12-18T13:21:30.854Z,65.40
2022-12-18T13:22:44.170Z,55.67
2022-12-18T13:23:46.973Z,201.73
2022-12-18T13:24:50.538Z,181.87
2022-12-18T13:26:11.305Z,88.28
2022-12-18T13:27:45.411Z,123.35
2022-12-18T13:28:48.687Z,139.20
2022-12-18T13:29:52.897Z,81.50
2022-12-18T13:30:57.728Z,68.87
2022-12-18T13:32:02.017Z,63.28
2022-12-18T13:33:25.741Z,67.47
2022-12-18T13:34:32.678Z,91.90
2022-12-18T13:35:40.842Z,136.27
2022-12-18T13:36:44.036Z,161.25
2022-12-18T13:37:54.240Z,144.95
2022-12-18T13:41:14.574Z,97.55
2022-12-18T13:43:13.245Z,89.30
2022-12-18T13:44:41.900Z,87.18
2022-12-18T13:45:51.528Z,68.22
2022-12-18T13:47:26.210Z,68.85
2022-12-18T13:49:08.513Z,79.10
2022-12-18T13:53:17.390Z,78.65
2022-12-18T13:54:22.256Z,68.80
2022-12-18T13:58:12.984Z,59.78
2022-12-18T14:03:46.925Z,64.43
2022-12-18T14:04:52.188Z,55.47
2022-12-18T14:08:17.529Z,101.95
2022-12-18T14:13:33.226Z,183.12
2022-12-18T14:14:36.258Z,298.52
2022-12-18T14:18:33.498Z,127.40
2022-12-18T14:19:37.098Z,143.90
2022-12-18T14:20:46.505Z,95.35
2022-12-18T14:22:30.355Z,124.37
2022-12-18T14:28:16.588Z,136.48
2022-12-18T14:32:05.831Z,99.05
2022-12-18T14:38:24.339Z,137.68
2022-12-18T14:39:27.286Z,82.60
2022-12-18T14:43:00.359Z,65.32
2022-12-18T14:44:08.300Z,60.08
2022-12-18T14:47:44.894Z,62.50
2022-12-18T14:48:49.025Z,74.85
2022-12-18T14:49:51.709Z,59.17
2022-12-18T14:51:11.402Z,53.72
2022-12-18T14:52:34.276Z,52.33
2022-12-18T14:54:15.421Z,64.80
2022-12-18T14:55:23.858Z,56.63
2022-12-18T14:56:45.613Z,70.07
2022-12-18T14:57:55.436Z,60.08
2022-12-18T15:01:36.321Z,57.40
2022-12-18T15:02:40.980Z,76.53
2022-12-18T15:03:46.523Z,71.03
2022-12-18T15:05:11.307Z,66.97
2022-12-18T15:06:18.691Z,86.68
2022-12-18T15:07:28.505Z,142.02
2022-12-18T15:08:38.089Z,163.70
2022-12-18T15:09:53.505Z,108.28
2022-12-18T15:10:58.309Z,134.10
2022-12-18T15:12:03.682Z,257.23
2022-12-18T15:13:07.466Z,125.62
2022-12-18T15:14:33.111Z,115.37
2022-12-18T15:15:43.953Z,123.03
2022-12-18T15:16:53.029Z,100.22
2022-12-18T15:18:03.677Z,109.45
2022-12-18T15:19:09.858Z,94.45
2022-12-18T15:20:15.472Z,86.10
2022-12-18T15:21:21.854Z,73.68
2022-12-18T15:22:34.929Z,93.47
2022-12-18T15:23:38.888Z,126.07
2022-12-18T15:24:45.209Z,108.05
2022-12-18T15:26:16.900Z,92.88
2022-12-18T15:27:39.486Z,80.10
2022-12-18T15:29:08.243Z,159.30
2022-12-18T15:30:31.316Z,128.48
2022-12-18T15:31:36.828Z,83.95
2022-12-18T15:32:41.585Z,99.67
2022-12-18T15:33:47.414Z,95.68
2022-12-18T15:34:51.270Z,83.40
2022-12-18T15:36:03.992Z,103.82
2022-12-18T15:37:09.645Z,126.47
2022-12-18T15:38:13.709Z,112.22
2022-12-18T15:39:18.074Z,126.60
2022-12-18T15:40:25.355Z,120.57
2022-12-18T15:41:29.300Z,115.57
2022-12-18T15:42:51.797Z,111.00
2022-12-18T15:43:55.739Z,95.77
2022-12-18T15:44:59.831Z,88.37
2022-12-18T15:46:08.332Z,85.12
2022-12-18T15:47:14.990Z,81.37
2022-12-18T15:48:23.219Z,76.43
2022-12-18T15:49:27.272Z,76.82
2022-12-18T15:50:31.009Z,78.78
2022-12-18T15:51:39.817Z,79.37
2022-12-18T15:52:47.080Z,76.32
2022-12-18T15:53:56.604Z,86.78
2022-12-18T15:55:18.925Z,94.60
2022-12-18T15:56:42.127Z,101.30
2022-12-18T15:57:47.391Z,95.90
2022-12-18T15:58:53.527Z,114.18
2022-12-18T15:59:59.649Z,191.75
2022-12-18T16:01:03.585Z,270.23
2022-12-18T16:02:20.836Z,325.23
2022-12-18T16:03:24.666Z,241.07
2022-12-18T16:04:38.580Z,165.32
2022-12-18T16:05:43.870Z,75.30
2022-12-18T16:08:12.348Z,119.72
2022-12-18T16:09:15.749Z,178.65
2022-12-18T16:10:19.638Z,160.45
2022-12-18T16:12:04.423Z,119.57
2022-12-18T16:13:16.973Z,112.00
2022-12-18T16:14:25.284Z,114.07
2022-12-18T16:15:29.265Z,153.62
2022-12-18T16:16:35.066Z,147.02
2022-12-18T16:17:40.181Z,158.37
2022-12-18T16:18:44.557Z,112.20
2022-12-18T16:19:49.447Z,88.75
2022-12-18T16:20:53.776Z,86.93
2022-12-18T16:21:59.462Z,181.18
2022-12-18T16:23:04.036Z,220.27
2022-12-18T16:24:19.667Z,179.57
2022-12-18T16:25:27.759Z,108.03
2022-12-18T16:26:32.013Z,122.03
2022-12-18T16:27:36.141Z,113.62
2022-12-18T16:28:45.239Z,130.77
2022-12-18T16:29:52.259Z,99.27
2022-12-18T16:30:59.330Z,79.15
2022-12-18T16:32:05.968Z,104.53
2022-12-18T16:33:12.328Z,134.80
2022-12-18T16:34:29.927Z,103.80
2022-12-18T16:35:33.752Z,92.68
2022-12-18T16:36:37.631Z,75.25
2022-12-18T16:37:42.976Z,64.10
2022-12-18T16:38:48.305Z,78.40
2022-12-18T16:39:51.368Z,95.68
2022-12-18T16:41:15.455Z,76.00
2022-12-18T16:42:21.538Z,96.37
2022-12-18T16:43:25.971Z,116.90
2022-12-18T16:44:29.489Z,76.57
2022-12-18T16:45:34.399Z,58.10
2022-12-18T16:46:38.993Z,74.35
2022-12-18T16:47:43.563Z,59.60
2022-12-18T16:48:47.069Z,65.68
2022-12-18T16:49:53.744Z,59.47
2022-12-18T16:51:04.498Z,53.75
2022-12-18T16:52:11.703Z,53.47
2022-12-18T16:53:18.391Z,75.05
2022-12-18T16:54:22.726Z,51.13
2022-12-18T16:55:27.727Z,51.95
2022-12-18T16:56:32.455Z,52.28
2022-12-18T16:57:36.678Z,43.78
2022-12-18T16:58:41.221Z,52.53
2022-12-18T16:59:47.601Z,48.15
2022-12-18T17:00:52.563Z,45.22
2022-12-18T17:01:57.862Z,83.30
2022-12-18T17:03:03.607Z,52.93
2022-12-18T17:04:09.098Z,52.80
2022-12-18T17:05:12.970Z,53.95
2022-12-18T17:06:16.619Z,61.72
2022-12-18T17:07:21.366Z,108.97
2022-12-18T17:08:25.888Z,92.18
2022-12-18T17:09:30.759Z,53.05
2022-12-18T17:10:36.527Z,64.35
2022-12-18T17:11:42.017Z,56.17
2022-12-18T17:12:46.429Z,77.47
2022-12-18T17:13:51.326Z,126.93
2022-12-18T17:14:55.358Z,84.35
2022-12-18T17:16:11.473Z,92.10
2022-12-18T17:17:23.596Z,73.90
2022-12-18T17:18:28.344Z,86.28
2022-12-18T17:19:31.418Z,109.78
2022-12-18T17:20:35.212Z,88.85
2022-12-18T17:21:39.000Z,81.57
2022-12-18T17:22:44.656Z,100.62
2022-12-18T17:23:56.290Z,75.57
2022-12-18T17:25:00.231Z,63.27
2022-12-18T17:26:07.875Z,67.82
2022-12-18T17:27:13.730Z,73.55
2022-12-18T17:28:17.368Z,78.75
2022-12-18T17:29:23.310Z,122.13
2022-12-18T17:30:30.336Z,81.70
2022-12-18T17:31:34.580Z,61.17
2022-12-18T17:32:38.464Z,84.55
2022-12-18T17:33:42.911Z,113.55
2022-12-18T17:34:47.471Z,121.60
2022-12-18T17:35:51.752Z,80.33
2022-12-18T17:36:55.806Z,88.35
2022-12-18T17:38:00.179Z,82.18
2022-12-18T17:39:06.880Z,104.38
2022-12-18T17:40:11.121Z,116.88
2022-12-18T17:41:37.037Z,83.57
2022-12-18T17:43:21.442Z,90.55
2022-12-18T17:46:42.327Z,66.18
2022-12-18T17:47:51.018Z,86.45
2022-12-18T17:49:00.287Z,106.37
2022-12-18T17:50:05.463Z,86.68
2022-12-18T17:51:11.543Z,79.65
2022-12-18T17:52:15.251Z,75.93
2022-12-18T17:53:22.178Z,69.37
2022-12-18T17:54:26.358Z,81.43
2022-12-18T17:55:30.221Z,81.82
2022-12-18T17:56:42.018Z,60.33
2022-12-18T17:57:45.926Z,64.82
2022-12-18T17:58:51.639Z,69.10
2022-12-18T17:59:55.335Z,64.77
2022-12-18T18:01:01.488Z,69.85
2022-12-18T18:02:05.700Z,79.53
2022-12-18T18:03:11.186Z,72.80
2022-12-18T18:04:16.202Z,77.87
2022-12-18T18:05:20.091Z,77.00
2022-12-18T18:06:24.571Z,73.18
2022-12-18T18:07:28.755Z,61.72
2022-12-18T18:08:34.606Z,49.08
2022-12-18T18:09:45.877Z,45.60
2022-12-18T18:10:50.383Z,45.27
2022-12-18T18:12:12.771Z,42.10
2022-12-18T18:13:46.437Z,41.15
2022-12-18T18:14:51.013Z,49.70
2022-12-18T18:15:59.881Z,50.33
2022-12-18T18:17:04.804Z,43.30
2022-12-18T18:18:09.099Z,42.92
2022-12-18T18:19:19.585Z,41.92
2022-12-18T18:20:23.188Z,43.90
2022-12-18T18:21:27.908Z,45.65
2022-12-18T18:22:33.128Z,45.93
2022-12-18T18:23:37.445Z,42.38
2022-12-18T18:24:45.530Z,43.35
2022-12-18T18:25:50.004Z,52.72
2022-12-18T18:27:00.314Z,52.05
2022-12-18T18:28:05.355Z,53.15
2022-12-18T18:29:14.666Z,96.35
2022-12-18T18:30:20.675Z,77.93
2022-12-18T18:31:24.612Z,98.30
2022-12-18T18:32:28.399Z,91.35
2022-12-18T18:33:35.812Z,92.33
2022-12-18T18:34:40.432Z,86.37
2022-12-18T18:35:54.558Z,77.40
2022-12-18T18:37:00.457Z,86.80
2022-12-18T18:38:05.466Z,68.20
2022-12-18T18:39:10.035Z,62.62
2022-12-18T18:40:14.921Z,53.58
2022-12-18T18:41:24.588Z,55.42
2022-12-18T18:42:29.394Z,72.65
2022-12-18T18:43:34.229Z,64.72
2022-12-18T18:44:45.761Z,72.20
2022-12-18T18:46:01.065Z,90.65
2022-12-18T18:47:06.956Z,65.82
2022-12-18T18:48:14.656Z,54.38
2022-12-18T18:49:18.680Z,57.28
2022-12-18T18:50:28.353Z,52.92
2022-12-18T18:51:35.278Z,75.43
2022-12-18T18:52:40.478Z,57.78
2022-12-18T18:53:50.165Z,54.22
2022-12-18T18:55:12.419Z,53.15
2022-12-18T18:57:57.386Z,50.20
2022-12-18T18:59:02.175Z,46.60
2022-12-18T19:00:06.365Z,43.05
2022-12-18T19:01:16.586Z,45.92
2022-12-18T19:02:21.801Z,46.88
2022-12-18T19:03:26.582Z,47.30
2022-12-18T19:04:31.365Z,47.58
2022-12-18T19:05:36.443Z,50.97
2022-12-18T19:06:41.616Z,60.58
2022-12-18T19:07:45.824Z,62.83
2022-12-18T19:08:51.948Z,59.45
2022-12-18T19:09:56.079Z,68.70
2022-12-18T19:11:04.379Z,66.80
2022-12-18T19:12:30.199Z,92.72
2022-12-18T19:13:35.892Z,100.53
2022-12-18T19:14:43.051Z,114.37
2022-12-18T19:15:56.249Z,106.35
2022-12-18T19:17:04.962Z,81.18
2022-12-18T19:18:28.548Z,67.32
2022-12-18T19:20:22.356Z,57.27
2022-12-18T19:21:26.691Z,70.22
2022-12-18T19:22:31.219Z,71.78
2022-12-18T19:23:38.195Z,78.97
2022-12-18T19:24:42.736Z,82.32
2022-12-18T19:25:50.664Z,65.68
2022-12-18T19:26:55.404Z,46.10
2022-12-18T19:28:01.857Z,39.45
2022-12-18T19:29:10.654Z,37.70
2022-12-18T19:30:28.018Z,50.30
2022-12-18T19:31:37.212Z,81.03
2022-12-18T19:32:43.771Z,122.60
2022-12-18T19:33:49.764Z,76.50
2022-12-18T19:34:58.784Z,77.15
2022-12-18T19:36:24.448Z,44.92
2022-12-18T19:37:30.083Z,42.97
2022-12-18T19:38:33.976Z,43.30